sensor_id;sensor_type;location;lat;lon;timestamp;P1;durP1;ratioP1;P2;durP2;ratioP2
53052;SDS011;38934;52.690;6.184;2023-07-20T00:00:32;6.47;;;5.50;;
53052;SDS011;38934;52.690;6.184;2023-07-20T00:03:13;12.23;;;5.38;;
53052;SDS011;38934;52.690;6.184;2023-07-20T00:05:44;5.63;;;4.75;;
53052;SDS011;38934;52.690;6.184;2023-07-20T00:08:10;5.55;;;4.40;;
53052;SDS011;38934;52.690;6.184;2023-07-20T00:10:36;8.23;;;4.53;;
53052;SDS011;38934;52.690;6.184;2023-07-20T00:13:02;8.05;;;4.38;;
53052;SDS011;38934;52.690;6.184;2023-07-20T00:15:28;5.93;;;4.32;;
53052;SDS011;38934;52.690;6.184;2023-07-20T00:17:54;7.30;;;5.60;;
53052;SDS011;38934;52.690;6.184;2023-07-20T00:20:21;5.05;;;4.00;;
53052;SDS011;38934;52.690;6.184;2023-07-20T00:22:48;6.72;;;3.85;;
53052;SDS011;38934;52.690;6.184;2023-07-20T00:25:16;7.72;;;4.25;;
53052;SDS011;38934;52.690;6.184;2023-07-20T00:27:42;6.53;;;4.63;;
53052;SDS011;38934;52.690;6.184;2023-07-20T00:30:08;8.55;;;4.25;;
53052;SDS011;38934;52.690;6.184;2023-07-20T00:32:34;5.13;;;3.95;;
53052;SDS011;38934;52.690;6.184;2023-07-20T00:35:00;4.97;;;4.47;;
53052;SDS011;38934;52.690;6.184;2023-07-20T00:37:26;4.95;;;4.32;;
53052;SDS011;38934;52.690;6.184;2023-07-20T00:39:53;5.13;;;4.60;;
53052;SDS011;38934;52.690;6.184;2023-07-20T00:42:19;8.00;;;4.25;;
53052;SDS011;38934;52.690;6.184;2023-07-20T00:44:45;7.10;;;4.38;;
53052;SDS011;38934;52.690;6.184;2023-07-20T00:47:11;8.27;;;4.68;;
53052;SDS011;38934;52.690;6.184;2023-07-20T00:49:37;5.50;;;3.90;;
53052;SDS011;38934;52.690;6.184;2023-07-20T00:52:03;5.40;;;4.38;;
53052;SDS011;38934;52.690;6.184;2023-07-20T00:54:32;7.03;;;4.97;;
53052;SDS011;38934;52.690;6.184;2023-07-20T00:56:58;4.70;;;4.20;;
53052;SDS011;38934;52.690;6.184;2023-07-20T00:59:25;6.00;;;4.55;;
53052;SDS011;38934;52.690;6.184;2023-07-20T01:01:51;7.10;;;4.22;;
53052;SDS011;38934;52.690;6.184;2023-07-20T01:04:17;7.57;;;4.70;;
53052;SDS011;38934;52.690;6.184;2023-07-20T01:07:19;7.93;;;4.22;;
53052;SDS011;38934;52.690;6.184;2023-07-20T01:09:40;7.00;;;4.50;;
53052;SDS011;38934;52.690;6.184;2023-07-20T01:12:08;5.40;;;4.57;;
53052;SDS011;38934;52.690;6.184;2023-07-20T01:14:36;6.63;;;4.55;;
53052;SDS011;38934;52.690;6.184;2023-07-20T01:17:02;9.68;;;4.82;;
53052;SDS011;38934;52.690;6.184;2023-07-20T01:19:28;6.20;;;4.55;;
53052;SDS011;38934;52.690;6.184;2023-07-20T01:32:23;8.65;;;4.97;;
53052;SDS011;38934;52.690;6.184;2023-07-20T01:34:50;6.38;;;4.85;;
53052;SDS011;38934;52.690;6.184;2023-07-20T01:37:18;7.30;;;5.22;;
53052;SDS011;38934;52.690;6.184;2023-07-20T01:39:45;6.60;;;5.20;;
53052;SDS011;38934;52.690;6.184;2023-07-20T01:42:11;7.97;;;5.70;;
53052;SDS011;38934;52.690;6.184;2023-07-20T01:44:38;7.75;;;5.32;;
53052;SDS011;38934;52.690;6.184;2023-07-20T01:47:04;7.20;;;5.50;;
53052;SDS011;38934;52.690;6.184;2023-07-20T01:49:30;7.93;;;5.35;;
53052;SDS011;38934;52.690;6.184;2023-07-20T01:51:56;6.57;;;5.47;;
53052;SDS011;38934;52.690;6.184;2023-07-20T01:54:22;8.75;;;5.90;;
53052;SDS011;38934;52.690;6.184;2023-07-20T01:56:48;7.60;;;6.15;;
53052;SDS011;38934;52.690;6.184;2023-07-20T01:59:14;8.10;;;6.03;;
53052;SDS011;38934;52.690;6.184;2023-07-20T02:01:40;7.55;;;6.57;;
53052;SDS011;38934;52.690;6.184;2023-07-20T02:04:06;10.13;;;7.18;;
53052;SDS011;38934;52.690;6.184;2023-07-20T02:06:32;11.50;;;7.35;;
53052;SDS011;38934;52.690;6.184;2023-07-20T02:08:58;9.20;;;6.72;;
53052;SDS011;38934;52.690;6.184;2023-07-20T02:11:24;8.55;;;7.20;;
53052;SDS011;38934;52.690;6.184;2023-07-20T02:13:50;9.15;;;7.50;;
53052;SDS011;38934;52.690;6.184;2023-07-20T02:16:16;10.13;;;7.82;;
53052;SDS011;38934;52.690;6.184;2023-07-20T02:18:42;8.63;;;6.95;;
53052;SDS011;38934;52.690;6.184;2023-07-20T02:21:08;8.07;;;7.00;;
53052;SDS011;38934;52.690;6.184;2023-07-20T02:23:34;10.43;;;7.50;;
53052;SDS011;38934;52.690;6.184;2023-07-20T02:26:00;8.95;;;7.35;;
53052;SDS011;38934;52.690;6.184;2023-07-20T02:28:26;9.13;;;7.65;;
53052;SDS011;38934;52.690;6.184;2023-07-20T02:30:54;9.07;;;7.55;;
53052;SDS011;38934;52.690;6.184;2023-07-20T02:33:20;8.85;;;7.15;;
53052;SDS011;38934;52.690;6.184;2023-07-20T02:35:46;9.63;;;8.00;;
53052;SDS011;38934;52.690;6.184;2023-07-20T02:38:12;9.07;;;7.00;;
53052;SDS011;38934;52.690;6.184;2023-07-20T02:40:39;8.23;;;6.70;;
53052;SDS011;38934;52.690;6.184;2023-07-20T02:43:05;9.75;;;7.95;;
53052;SDS011;38934;52.690;6.184;2023-07-20T02:45:31;9.27;;;7.15;;
53052;SDS011;38934;52.690;6.184;2023-07-20T02:47:57;9.85;;;8.23;;
53052;SDS011;38934;52.690;6.184;2023-07-20T02:50:23;8.80;;;7.20;;
53052;SDS011;38934;52.690;6.184;2023-07-20T02:52:49;10.35;;;8.00;;
53052;SDS011;38934;52.690;6.184;2023-07-20T02:55:15;10.23;;;8.27;;
53052;SDS011;38934;52.690;6.184;2023-07-20T02:57:41;13.00;;;8.82;;
53052;SDS011;38934;52.690;6.184;2023-07-20T03:00:07;9.05;;;8.02;;
53052;SDS011;38934;52.690;6.184;2023-07-20T03:02:33;9.50;;;8.00;;
53052;SDS011;38934;52.690;6.184;2023-07-20T03:04:59;10.05;;;7.75;;
53052;SDS011;38934;52.690;6.184;2023-07-20T03:07:27;10.02;;;7.40;;
53052;SDS011;38934;52.690;6.184;2023-07-20T03:09:53;7.65;;;6.30;;
53052;SDS011;38934;52.690;6.184;2023-07-20T03:12:20;9.80;;;7.55;;
53052;SDS011;38934;52.690;6.184;2023-07-20T03:14:46;9.27;;;6.28;;
53052;SDS011;38934;52.690;6.184;2023-07-20T03:17:12;9.43;;;6.85;;
53052;SDS011;38934;52.690;6.184;2023-07-20T03:19:38;12.05;;;8.68;;
53052;SDS011;38934;52.690;6.184;2023-07-20T03:22:05;11.27;;;8.70;;
53052;SDS011;38934;52.690;6.184;2023-07-20T03:24:31;9.05;;;7.53;;
53052;SDS011;38934;52.690;6.184;2023-07-20T03:26:58;9.70;;;8.02;;
53052;SDS011;38934;52.690;6.184;2023-07-20T03:29:24;12.02;;;8.77;;
53052;SDS011;38934;52.690;6.184;2023-07-20T03:31:50;8.52;;;7.20;;
53052;SDS011;38934;52.690;6.184;2023-07-20T03:34:16;11.73;;;8.43;;
53052;SDS011;38934;52.690;6.184;2023-07-20T03:36:43;9.45;;;7.20;;
53052;SDS011;38934;52.690;6.184;2023-07-20T03:39:09;10.32;;;7.70;;
53052;SDS011;38934;52.690;6.184;2023-07-20T03:41:35;11.00;;;7.97;;
53052;SDS011;38934;52.690;6.184;2023-07-20T03:44:02;9.48;;;7.85;;
53052;SDS011;38934;52.690;6.184;2023-07-20T03:46:28;9.07;;;7.20;;
53052;SDS011;38934;52.690;6.184;2023-07-20T03:48:54;10.38;;;8.20;;
53052;SDS011;38934;52.690;6.184;2023-07-20T03:51:20;10.02;;;7.57;;
53052;SDS011;38934;52.690;6.184;2023-07-20T03:53:46;8.88;;;7.20;;
53052;SDS011;38934;52.690;6.184;2023-07-20T03:56:12;8.45;;;6.65;;
53052;SDS011;38934;52.690;6.184;2023-07-20T03:58:38;7.90;;;6.32;;
53052;SDS011;38934;52.690;6.184;2023-07-20T04:01:04;7.90;;;6.38;;
53052;SDS011;38934;52.690;6.184;2023-07-20T04:03:30;8.93;;;7.18;;
53052;SDS011;38934;52.690;6.184;2023-07-20T04:05:56;8.50;;;6.90;;
53052;SDS011;38934;52.690;6.184;2023-07-20T04:08:25;7.82;;;7.03;;
53052;SDS011;38934;52.690;6.184;2023-07-20T04:10:51;10.82;;;6.85;;
53052;SDS011;38934;52.690;6.184;2023-07-20T04:13:17;11.43;;;7.03;;
53052;SDS011;38934;52.690;6.184;2023-07-20T04:15:43;10.52;;;6.53;;
53052;SDS011;38934;52.690;6.184;2023-07-20T04:18:09;8.80;;;6.22;;
53052;SDS011;38934;52.690;6.184;2023-07-20T04:20:35;9.32;;;6.10;;
53052;SDS011;38934;52.690;6.184;2023-07-20T04:23:01;8.15;;;6.47;;
53052;SDS011;38934;52.690;6.184;2023-07-20T04:25:27;6.47;;;5.00;;
53052;SDS011;38934;52.690;6.184;2023-07-20T04:27:53;10.48;;;6.68;;
53052;SDS011;38934;52.690;6.184;2023-07-20T04:30:20;8.95;;;6.03;;
53052;SDS011;38934;52.690;6.184;2023-07-20T04:32:47;11.25;;;6.55;;
53052;SDS011;38934;52.690;6.184;2023-07-20T04:35:55;14.32;;;6.55;;
53052;SDS011;38934;52.690;6.184;2023-07-20T04:38:02;8.07;;;5.63;;
53052;SDS011;38934;52.690;6.184;2023-07-20T04:40:28;10.82;;;7.57;;
53052;SDS011;38934;52.690;6.184;2023-07-20T04:42:54;10.15;;;6.78;;
53052;SDS011;38934;52.690;6.184;2023-07-20T04:45:20;8.18;;;6.75;;
53052;SDS011;38934;52.690;6.184;2023-07-20T04:47:48;8.52;;;6.38;;
53052;SDS011;38934;52.690;6.184;2023-07-20T04:50:16;8.88;;;5.88;;
53052;SDS011;38934;52.690;6.184;2023-07-20T04:52:42;8.20;;;6.28;;
53052;SDS011;38934;52.690;6.184;2023-07-20T04:55:08;7.97;;;5.88;;
53052;SDS011;38934;52.690;6.184;2023-07-20T04:57:34;7.65;;;5.65;;
53052;SDS011;38934;52.690;6.184;2023-07-20T05:00:00;11.85;;;6.00;;
53052;SDS011;38934;52.690;6.184;2023-07-20T05:02:26;10.80;;;6.43;;
53052;SDS011;38934;52.690;6.184;2023-07-20T05:04:52;9.30;;;6.05;;
53052;SDS011;38934;52.690;6.184;2023-07-20T05:07:18;7.82;;;5.85;;
53052;SDS011;38934;52.690;6.184;2023-07-20T05:09:44;7.15;;;5.20;;
53052;SDS011;38934;52.690;6.184;2023-07-20T05:12:13;7.97;;;4.60;;
53052;SDS011;38934;52.690;6.184;2023-07-20T05:14:39;5.40;;;4.05;;
53052;SDS011;38934;52.690;6.184;2023-07-20T05:17:06;5.72;;;4.03;;
53052;SDS011;38934;52.690;6.184;2023-07-20T05:19:32;5.78;;;3.92;;
53052;SDS011;38934;52.690;6.184;2023-07-20T05:21:59;6.63;;;4.20;;
53052;SDS011;38934;52.690;6.184;2023-07-20T05:24:25;7.50;;;3.83;;
53052;SDS011;38934;52.690;6.184;2023-07-20T05:26:51;6.00;;;4.10;;
53052;SDS011;38934;52.690;6.184;2023-07-20T05:29:17;6.00;;;3.55;;
53052;SDS011;38934;52.690;6.184;2023-07-20T05:31:43;7.78;;;3.90;;
53052;SDS011;38934;52.690;6.184;2023-07-20T05:34:09;5.68;;;3.50;;
53052;SDS011;38934;52.690;6.184;2023-07-20T05:36:35;6.25;;;3.35;;
53052;SDS011;38934;52.690;6.184;2023-07-20T05:39:02;6.50;;;3.30;;
53052;SDS011;38934;52.690;6.184;2023-07-20T05:41:28;6.35;;;3.78;;
53052;SDS011;38934;52.690;6.184;2023-07-20T05:43:53;6.53;;;3.83;;
53052;SDS011;38934;52.690;6.184;2023-07-20T05:46:19;5.20;;;3.80;;
53052;SDS011;38934;52.690;6.184;2023-07-20T05:48:46;4.88;;;3.30;;
53052;SDS011;38934;52.690;6.184;2023-07-20T05:51:12;7.10;;;3.92;;
53052;SDS011;38934;52.690;6.184;2023-07-20T05:53:38;8.40;;;4.15;;
53052;SDS011;38934;52.690;6.184;2023-07-20T05:56:04;7.70;;;4.40;;
53052;SDS011;38934;52.690;6.184;2023-07-20T05:58:30;12.43;;;4.72;;
53052;SDS011;38934;52.690;6.184;2023-07-20T06:00:57;15.82;;;4.45;;
53052;SDS011;38934;52.690;6.184;2023-07-20T06:03:23;8.57;;;3.63;;
53052;SDS011;38934;52.690;6.184;2023-07-20T06:05:49;12.98;;;3.53;;
53052;SDS011;38934;52.690;6.184;2023-07-20T06:08:15;4.30;;;2.90;;
53052;SDS011;38934;52.690;6.184;2023-07-20T06:10:41;6.22;;;2.55;;
53052;SDS011;38934;52.690;6.184;2023-07-20T06:13:11;7.45;;;2.65;;
53052;SDS011;38934;52.690;6.184;2023-07-20T06:15:37;6.95;;;2.40;;
53052;SDS011;38934;52.690;6.184;2023-07-20T06:18:04;5.95;;;2.20;;
53052;SDS011;38934;52.690;6.184;2023-07-20T06:20:30;7.50;;;2.40;;
53052;SDS011;38934;52.690;6.184;2023-07-20T06:22:56;10.05;;;2.10;;
53052;SDS011;38934;52.690;6.184;2023-07-20T06:25:22;6.70;;;2.00;;
53052;SDS011;38934;52.690;6.184;2023-07-20T06:27:49;2.00;;;1.45;;
53052;SDS011;38934;52.690;6.184;2023-07-20T06:30:18;2.53;;;1.50;;
53052;SDS011;38934;52.690;6.184;2023-07-20T06:32:45;2.85;;;1.40;;
53052;SDS011;38934;52.690;6.184;2023-07-20T06:35:11;2.13;;;1.40;;
53052;SDS011;38934;52.690;6.184;2023-07-20T06:37:44;2.83;;;1.42;;
53052;SDS011;38934;52.690;6.184;2023-07-20T06:40:10;4.78;;;1.70;;
53052;SDS011;38934;52.690;6.184;2023-07-20T06:42:37;2.95;;;1.75;;
53052;SDS011;38934;52.690;6.184;2023-07-20T06:45:03;3.22;;;2.20;;
53052;SDS011;38934;52.690;6.184;2023-07-20T06:47:29;4.78;;;2.50;;
53052;SDS011;38934;52.690;6.184;2023-07-20T06:49:55;3.42;;;1.98;;
53052;SDS011;38934;52.690;6.184;2023-07-20T06:52:21;4.40;;;1.95;;
53052;SDS011;38934;52.690;6.184;2023-07-20T06:54:47;8.98;;;2.15;;
53052;SDS011;38934;52.690;6.184;2023-07-20T06:57:16;4.47;;;2.00;;
53052;SDS011;38934;52.690;6.184;2023-07-20T06:59:42;5.35;;;1.90;;
53052;SDS011;38934;52.690;6.184;2023-07-20T07:02:08;3.83;;;1.80;;
53052;SDS011;38934;52.690;6.184;2023-07-20T07:04:34;2.40;;;1.40;;
53052;SDS011;38934;52.690;6.184;2023-07-20T07:07:03;3.85;;;1.40;;
53052;SDS011;38934;52.690;6.184;2023-07-20T07:09:29;1.70;;;1.35;;
53052;SDS011;38934;52.690;6.184;2023-07-20T07:11:55;2.78;;;1.30;;
53052;SDS011;38934;52.690;6.184;2023-07-20T07:14:24;4.07;;;1.42;;
53052;SDS011;38934;52.690;6.184;2023-07-20T07:16:51;4.47;;;1.85;;
53052;SDS011;38934;52.690;6.184;2023-07-20T07:19:19;2.85;;;1.30;;
53052;SDS011;38934;52.690;6.184;2023-07-20T07:21:46;1.75;;;1.20;;
53052;SDS011;38934;52.690;6.184;2023-07-20T07:24:12;1.67;;;1.10;;
53052;SDS011;38934;52.690;6.184;2023-07-20T07:26:38;2.08;;;1.15;;
53052;SDS011;38934;52.690;6.184;2023-07-20T07:29:08;2.25;;;1.10;;
53052;SDS011;38934;52.690;6.184;2023-07-20T07:31:34;2.22;;;0.98;;
53052;SDS011;38934;52.690;6.184;2023-07-20T07:34:02;1.20;;;0.82;;
53052;SDS011;38934;52.690;6.184;2023-07-20T07:36:29;1.23;;;0.90;;
53052;SDS011;38934;52.690;6.184;2023-07-20T07:38:55;2.50;;;1.10;;
53052;SDS011;38934;52.690;6.184;2023-07-20T07:41:22;3.92;;;1.40;;
53052;SDS011;38934;52.690;6.184;2023-07-20T07:43:48;4.75;;;1.10;;
53052;SDS011;38934;52.690;6.184;2023-07-20T07:46:14;1.67;;;0.90;;
53052;SDS011;38934;52.690;6.184;2023-07-20T07:48:46;3.65;;;1.00;;
53052;SDS011;38934;52.690;6.184;2023-07-20T07:51:12;2.83;;;1.20;;
53052;SDS011;38934;52.690;6.184;2023-07-20T07:56:31;2.30;;;1.10;;
53052;SDS011;38934;52.690;6.184;2023-07-20T07:58:59;2.08;;;0.90;;
53052;SDS011;38934;52.690;6.184;2023-07-20T08:01:25;2.53;;;1.15;;
53052;SDS011;38934;52.690;6.184;2023-07-20T08:03:52;3.58;;;1.02;;
53052;SDS011;38934;52.690;6.184;2023-07-20T08:06:18;3.03;;;1.20;;
53052;SDS011;38934;52.690;6.184;2023-07-20T08:08:44;2.45;;;1.10;;
53052;SDS011;38934;52.690;6.184;2023-07-20T08:11:12;1.40;;;1.30;;
53052;SDS011;38934;52.690;6.184;2023-07-20T08:13:39;1.52;;;1.30;;
53052;SDS011;38934;52.690;6.184;2023-07-20T08:16:05;6.45;;;1.70;;
53052;SDS011;38934;52.690;6.184;2023-07-20T08:18:36;4.23;;;1.60;;
53052;SDS011;38934;52.690;6.184;2023-07-20T08:21:03;3.05;;;1.20;;
53052;SDS011;38934;52.690;6.184;2023-07-20T08:23:31;3.08;;;1.40;;
53052;SDS011;38934;52.690;6.184;2023-07-20T08:25:57;1.83;;;1.10;;
53052;SDS011;38934;52.690;6.184;2023-07-20T08:28:23;6.35;;;2.03;;
53052;SDS011;38934;52.690;6.184;2023-07-20T08:30:51;1.10;;;1.00;;
53052;SDS011;38934;52.690;6.184;2023-07-20T08:33:17;2.58;;;1.27;;
53052;SDS011;38934;52.690;6.184;2023-07-20T08:35:44;1.85;;;1.40;;
53052;SDS011;38934;52.690;6.184;2023-07-20T08:38:11;4.30;;;1.30;;
53052;SDS011;38934;52.690;6.184;2023-07-20T08:40:40;4.88;;;1.60;;
53052;SDS011;38934;52.690;6.184;2023-07-20T08:43:11;4.88;;;1.10;;
53052;SDS011;38934;52.690;6.184;2023-07-20T08:45:39;1.63;;;1.10;;
53052;SDS011;38934;52.690;6.184;2023-07-20T08:48:05;3.25;;;1.00;;
53052;SDS011;38934;52.690;6.184;2023-07-20T08:50:32;0.80;;;0.80;;
53052;SDS011;38934;52.690;6.184;2023-07-20T08:52:58;1.08;;;0.70;;
53052;SDS011;38934;52.690;6.184;2023-07-20T08:55:28;2.20;;;0.65;;
53052;SDS011;38934;52.690;6.184;2023-07-20T08:57:55;1.98;;;0.75;;
53052;SDS011;38934;52.690;6.184;2023-07-20T09:00:21;1.02;;;0.90;;
53052;SDS011;38934;52.690;6.184;2023-07-20T09:02:52;0.70;;;0.70;;
53052;SDS011;38934;52.690;6.184;2023-07-20T09:05:19;2.25;;;0.98;;
53052;SDS011;38934;52.690;6.184;2023-07-20T09:07:46;1.13;;;0.93;;
53052;SDS011;38934;52.690;6.184;2023-07-20T09:10:12;2.22;;;1.10;;
53052;SDS011;38934;52.690;6.184;2023-07-20T09:12:45;5.95;;;1.67;;
53052;SDS011;38934;52.690;6.184;2023-07-20T09:15:11;2.05;;;1.20;;
53052;SDS011;38934;52.690;6.184;2023-07-20T09:17:38;2.40;;;1.10;;
53052;SDS011;38934;52.690;6.184;2023-07-20T09:20:10;1.50;;;0.88;;
53052;SDS011;38934;52.690;6.184;2023-07-20T09:22:38;1.88;;;0.88;;
53052;SDS011;38934;52.690;6.184;2023-07-20T09:27:47;1.27;;;1.02;;
53052;SDS011;38934;52.690;6.184;2023-07-20T09:30:16;2.45;;;1.02;;
53052;SDS011;38934;52.690;6.184;2023-07-20T09:32:48;1.35;;;1.00;;
53052;SDS011;38934;52.690;6.184;2023-07-20T09:35:21;4.28;;;2.70;;
53052;SDS011;38934;52.690;6.184;2023-07-20T09:38:00;1.27;;;1.17;;
53052;SDS011;38934;52.690;6.184;2023-07-20T09:40:26;2.00;;;1.00;;
53052;SDS011;38934;52.690;6.184;2023-07-20T09:42:53;1.27;;;1.00;;
53052;SDS011;38934;52.690;6.184;2023-07-20T09:45:28;1.60;;;0.90;;
53052;SDS011;38934;52.690;6.184;2023-07-20T09:48:37;0.95;;;0.90;;
53052;SDS011;38934;52.690;6.184;2023-07-20T09:50:50;1.20;;;0.70;;
53052;SDS011;38934;52.690;6.184;2023-07-20T09:53:16;0.90;;;0.90;;
53052;SDS011;38934;52.690;6.184;2023-07-20T09:55:48;1.40;;;0.80;;
53052;SDS011;38934;52.690;6.184;2023-07-20T09:58:17;2.47;;;1.10;;
53052;SDS011;38934;52.690;6.184;2023-07-20T10:00:44;1.85;;;0.90;;
53052;SDS011;38934;52.690;6.184;2023-07-20T10:03:24;1.58;;;0.90;;
53052;SDS011;38934;52.690;6.184;2023-07-20T10:05:54;1.88;;;1.00;;
53052;SDS011;38934;52.690;6.184;2023-07-20T10:08:20;3.35;;;1.02;;
53052;SDS011;38934;52.690;6.184;2023-07-20T10:10:49;2.67;;;1.00;;
53052;SDS011;38934;52.690;6.184;2023-07-20T10:13:21;2.80;;;1.10;;
53052;SDS011;38934;52.690;6.184;2023-07-20T10:15:50;3.10;;;1.23;;
53052;SDS011;38934;52.690;6.184;2023-07-20T10:20:49;2.83;;;1.20;;
53052;SDS011;38934;52.690;6.184;2023-07-20T10:23:17;2.15;;;1.20;;
53052;SDS011;38934;52.690;6.184;2023-07-20T10:25:43;1.77;;;1.00;;
53052;SDS011;38934;52.690;6.184;2023-07-20T10:28:10;2.45;;;1.10;;
53052;SDS011;38934;52.690;6.184;2023-07-20T10:30:39;2.20;;;1.10;;
53052;SDS011;38934;52.690;6.184;2023-07-20T10:33:06;1.15;;;1.05;;
53052;SDS011;38934;52.690;6.184;2023-07-20T10:35:51;1.63;;;1.08;;
53052;SDS011;38934;52.690;6.184;2023-07-20T10:38:18;1.35;;;1.25;;
53052;SDS011;38934;52.690;6.184;2023-07-20T10:40:53;1.13;;;1.02;;
53052;SDS011;38934;52.690;6.184;2023-07-20T10:43:29;1.27;;;1.10;;
53052;SDS011;38934;52.690;6.184;2023-07-20T10:45:55;1.45;;;1.10;;
53052;SDS011;38934;52.690;6.184;2023-07-20T10:48:22;1.75;;;1.15;;
53052;SDS011;38934;52.690;6.184;2023-07-20T10:53:33;2.10;;;1.10;;
53052;SDS011;38934;52.690;6.184;2023-07-20T10:56:12;1.80;;;1.20;;
53052;SDS011;38934;52.690;6.184;2023-07-20T10:58:41;1.45;;;1.20;;
53052;SDS011;38934;52.690;6.184;2023-07-20T11:01:07;1.33;;;1.08;;
53052;SDS011;38934;52.690;6.184;2023-07-20T11:03:34;3.40;;;1.52;;
53052;SDS011;38934;52.690;6.184;2023-07-20T11:08:45;2.08;;;1.27;;
53052;SDS011;38934;52.690;6.184;2023-07-20T11:11:25;1.73;;;1.15;;
53052;SDS011;38934;52.690;6.184;2023-07-20T11:14:04;2.03;;;1.17;;
53052;SDS011;38934;52.690;6.184;2023-07-20T11:16:38;1.40;;;1.10;;
53052;SDS011;38934;52.690;6.184;2023-07-20T11:19:05;2.42;;;1.30;;
53052;SDS011;38934;52.690;6.184;2023-07-20T11:21:35;2.42;;;1.08;;
53052;SDS011;38934;52.690;6.184;2023-07-20T11:24:07;3.65;;;1.30;;
53052;SDS011;38934;52.690;6.184;2023-07-20T11:26:59;1.80;;;1.20;;
53052;SDS011;38934;52.690;6.184;2023-07-20T11:29:29;2.70;;;1.58;;
53052;SDS011;38934;52.690;6.184;2023-07-20T11:32:06;2.08;;;1.35;;
53052;SDS011;38934;52.690;6.184;2023-07-20T11:34:34;2.25;;;1.30;;
53052;SDS011;38934;52.690;6.184;2023-07-20T11:37:13;1.40;;;0.95;;
53052;SDS011;38934;52.690;6.184;2023-07-20T11:39:39;1.85;;;1.00;;
53052;SDS011;38934;52.690;6.184;2023-07-20T11:42:08;1.30;;;0.98;;
53052;SDS011;38934;52.690;6.184;2023-07-20T11:44:34;1.55;;;1.10;;
53052;SDS011;38934;52.690;6.184;2023-07-20T11:47:11;1.58;;;1.00;;
53052;SDS011;38934;52.690;6.184;2023-07-20T11:49:38;1.08;;;1.00;;
53052;SDS011;38934;52.690;6.184;2023-07-20T11:52:08;1.83;;;1.10;;
53052;SDS011;38934;52.690;6.184;2023-07-20T11:54:34;3.20;;;1.50;;
53052;SDS011;38934;52.690;6.184;2023-07-20T11:57:03;2.15;;;0.95;;
53052;SDS011;38934;52.690;6.184;2023-07-20T11:59:30;2.08;;;1.00;;
53052;SDS011;38934;52.690;6.184;2023-07-20T12:01:56;1.45;;;0.95;;
53052;SDS011;38934;52.690;6.184;2023-07-20T12:04:23;1.50;;;0.98;;
53052;SDS011;38934;52.690;6.184;2023-07-20T12:06:53;1.58;;;0.90;;
53052;SDS011;38934;52.690;6.184;2023-07-20T12:09:20;1.55;;;0.85;;
53052;SDS011;38934;52.690;6.184;2023-07-20T12:11:52;2.08;;;0.90;;
53052;SDS011;38934;52.690;6.184;2023-07-20T12:14:18;1.05;;;0.73;;
53052;SDS011;38934;52.690;6.184;2023-07-20T12:16:51;2.13;;;1.08;;
53052;SDS011;38934;52.690;6.184;2023-07-20T12:19:19;0.95;;;0.90;;
53052;SDS011;38934;52.690;6.184;2023-07-20T12:22:02;1.77;;;0.88;;
53052;SDS011;38934;52.690;6.184;2023-07-20T12:24:31;2.22;;;1.20;;
53052;SDS011;38934;52.690;6.184;2023-07-20T12:26:58;1.33;;;0.82;;
53052;SDS011;38934;52.690;6.184;2023-07-20T12:29:24;1.80;;;0.75;;
53052;SDS011;38934;52.690;6.184;2023-07-20T12:31:51;1.83;;;1.00;;
53052;SDS011;38934;52.690;6.184;2023-07-20T12:34:20;1.52;;;0.80;;
53052;SDS011;38934;52.690;6.184;2023-07-20T12:36:46;2.00;;;0.90;;
53052;SDS011;38934;52.690;6.184;2023-07-20T12:39:18;2.05;;;0.80;;
53052;SDS011;38934;52.690;6.184;2023-07-20T12:41:47;1.48;;;1.15;;
53052;SDS011;38934;52.690;6.184;2023-07-20T12:44:16;1.85;;;0.90;;
53052;SDS011;38934;52.690;6.184;2023-07-20T12:46:42;6.43;;;1.20;;
53052;SDS011;38934;52.690;6.184;2023-07-20T12:49:08;1.30;;;1.10;;
53052;SDS011;38934;52.690;6.184;2023-07-20T12:51:34;2.75;;;1.05;;
53052;SDS011;38934;52.690;6.184;2023-07-20T12:54:00;0.90;;;0.90;;
53052;SDS011;38934;52.690;6.184;2023-07-20T12:56:30;1.02;;;0.80;;
53052;SDS011;38934;52.690;6.184;2023-07-20T12:58:56;3.05;;;1.08;;
53052;SDS011;38934;52.690;6.184;2023-07-20T13:01:23;2.13;;;0.88;;
53052;SDS011;38934;52.690;6.184;2023-07-20T13:03:49;0.85;;;0.82;;
53052;SDS011;38934;52.690;6.184;2023-07-20T13:06:15;1.20;;;0.70;;
53052;SDS011;38934;52.690;6.184;2023-07-20T13:08:41;0.75;;;0.75;;
53052;SDS011;38934;52.690;6.184;2023-07-20T13:11:07;1.23;;;0.80;;
53052;SDS011;38934;52.690;6.184;2023-07-20T13:13:33;1.38;;;1.00;;
53052;SDS011;38934;52.690;6.184;2023-07-20T13:15:59;1.50;;;1.10;;
53052;SDS011;38934;52.690;6.184;2023-07-20T13:18:25;1.10;;;1.00;;
53052;SDS011;38934;52.690;6.184;2023-07-20T13:20:51;2.08;;;1.00;;
53052;SDS011;38934;52.690;6.184;2023-07-20T13:23:17;2.55;;;1.20;;
53052;SDS011;38934;52.690;6.184;2023-07-20T13:25:43;2.65;;;1.33;;
53052;SDS011;38934;52.690;6.184;2023-07-20T13:28:09;2.60;;;1.15;;
53052;SDS011;38934;52.690;6.184;2023-07-20T13:30:35;1.00;;;0.90;;
53052;SDS011;38934;52.690;6.184;2023-07-20T13:33:02;2.00;;;1.05;;
53052;SDS011;38934;52.690;6.184;2023-07-20T13:35:28;1.95;;;1.08;;
53052;SDS011;38934;52.690;6.184;2023-07-20T13:38:02;1.33;;;0.90;;
53052;SDS011;38934;52.690;6.184;2023-07-20T13:40:28;2.33;;;0.90;;
53052;SDS011;38934;52.690;6.184;2023-07-20T13:42:57;0.75;;;0.73;;
53052;SDS011;38934;52.690;6.184;2023-07-20T13:45:23;1.20;;;1.02;;
53052;SDS011;38934;52.690;6.184;2023-07-20T13:47:50;1.05;;;0.98;;
53052;SDS011;38934;52.690;6.184;2023-07-20T13:50:16;2.05;;;1.10;;
53052;SDS011;38934;52.690;6.184;2023-07-20T13:52:42;1.90;;;0.90;;
53052;SDS011;38934;52.690;6.184;2023-07-20T13:55:08;1.48;;;0.98;;
53052;SDS011;38934;52.690;6.184;2023-07-20T13:57:34;4.10;;;1.10;;
53052;SDS011;38934;52.690;6.184;2023-07-20T14:00:00;1.80;;;1.10;;
53052;SDS011;38934;52.690;6.184;2023-07-20T14:02:27;0.90;;;0.90;;
53052;SDS011;38934;52.690;6.184;2023-07-20T14:04:53;0.88;;;0.88;;
53052;SDS011;38934;52.690;6.184;2023-07-20T14:07:20;6.82;;;1.10;;
53052;SDS011;38934;52.690;6.184;2023-07-20T14:09:46;4.45;;;1.05;;
53052;SDS011;38934;52.690;6.184;2023-07-20T14:12:12;1.38;;;1.10;;
53052;SDS011;38934;52.690;6.184;2023-07-20T14:14:39;2.13;;;0.90;;
53052;SDS011;38934;52.690;6.184;2023-07-20T14:17:06;1.55;;;0.95;;
53052;SDS011;38934;52.690;6.184;2023-07-20T14:19:32;0.90;;;0.85;;
53052;SDS011;38934;52.690;6.184;2023-07-20T14:21:58;1.08;;;0.80;;
53052;SDS011;38934;52.690;6.184;2023-07-20T14:24:25;0.90;;;0.80;;
53052;SDS011;38934;52.690;6.184;2023-07-20T14:26:51;1.20;;;0.80;;
53052;SDS011;38934;52.690;6.184;2023-07-20T14:29:17;1.23;;;0.80;;
53052;SDS011;38934;52.690;6.184;2023-07-20T14:31:44;0.80;;;0.80;;
53052;SDS011;38934;52.690;6.184;2023-07-20T14:34:10;1.15;;;1.00;;
53052;SDS011;38934;52.690;6.184;2023-07-20T14:36:36;1.38;;;0.75;;
53052;SDS011;38934;52.690;6.184;2023-07-20T14:39:02;0.85;;;0.77;;
53052;SDS011;38934;52.690;6.184;2023-07-20T14:41:28;1.63;;;0.80;;
53052;SDS011;38934;52.690;6.184;2023-07-20T14:43:54;1.77;;;1.20;;
53052;SDS011;38934;52.690;6.184;2023-07-20T14:46:20;2.72;;;0.95;;
53052;SDS011;38934;52.690;6.184;2023-07-20T14:48:46;1.17;;;0.93;;
53052;SDS011;38934;52.690;6.184;2023-07-20T14:51:12;1.10;;;0.90;;
53052;SDS011;38934;52.690;6.184;2023-07-20T14:53:38;1.75;;;0.90;;
53052;SDS011;38934;52.690;6.184;2023-07-20T14:56:04;0.70;;;0.70;;
53052;SDS011;38934;52.690;6.184;2023-07-20T14:58:32;0.80;;;0.80;;
53052;SDS011;38934;52.690;6.184;2023-07-20T15:00:58;1.98;;;0.93;;
53052;SDS011;38934;52.690;6.184;2023-07-20T15:03:24;2.03;;;0.98;;
53052;SDS011;38934;52.690;6.184;2023-07-20T15:05:50;4.30;;;1.10;;
53052;SDS011;38934;52.690;6.184;2023-07-20T15:08:17;3.58;;;1.50;;
53052;SDS011;38934;52.690;6.184;2023-07-20T15:10:44;3.10;;;1.10;;